createdAt,value
2023-04-27T00:01:00.073Z,2.28
2023-04-27T00:03:26.895Z,2.35
2023-04-27T00:05:53.678Z,2.25
2023-04-27T00:08:20.127Z,2.10
2023-04-27T00:10:46.543Z,2.15
2023-04-27T00:13:12.983Z,1.85
2023-04-27T00:15:39.497Z,1.90
2023-04-27T00:18:06.178Z,2.13
2023-04-27T00:20:33.808Z,2.20
2023-04-27T00:23:00.223Z,3.45
2023-04-27T00:25:26.703Z,2.80
2023-04-27T00:27:53.218Z,2.95
2023-04-27T00:30:19.875Z,2.80
2023-04-27T00:32:46.348Z,2.95
2023-04-27T00:35:16.270Z,2.17
2023-04-27T00:37:42.710Z,2.00
2023-04-27T00:40:09.518Z,2.00
2023-04-27T00:42:36.534Z,2.00
2023-04-27T00:45:04.062Z,1.85
2023-04-27T00:47:30.931Z,1.70
2023-04-27T00:49:57.471Z,2.15
2023-04-27T00:52:25.993Z,2.50
2023-04-27T00:54:53.640Z,2.50
2023-04-27T00:57:21.323Z,2.30
2023-04-27T00:59:47.811Z,2.13
2023-04-27T01:02:14.898Z,2.55
2023-04-27T01:04:41.526Z,2.10
2023-04-27T01:07:08.152Z,2.03
2023-04-27T01:09:34.637Z,2.05
2023-04-27T01:12:01.289Z,2.35
2023-04-27T01:14:27.769Z,2.60
2023-04-27T01:16:54.433Z,2.60
2023-04-27T01:19:20.979Z,2.38
2023-04-27T01:21:47.396Z,2.25
2023-04-27T01:24:13.887Z,2.22
2023-04-27T01:26:40.541Z,2.00
2023-04-27T01:29:07.072Z,2.28
2023-04-27T01:31:33.556Z,2.40
2023-04-27T01:34:00.208Z,2.00
2023-04-27T01:36:27.636Z,1.90
2023-04-27T01:38:55.781Z,1.95
2023-04-27T01:41:22.238Z,2.50
2023-04-27T01:43:48.634Z,2.10
2023-04-27T01:46:15.824Z,1.90
2023-04-27T01:48:42.365Z,2.45
2023-04-27T01:51:10.938Z,2.20
2023-04-27T01:53:37.418Z,2.00
2023-04-27T01:56:04.031Z,1.80
2023-04-27T01:58:32.812Z,2.10
2023-04-27T02:00:59.351Z,2.10
2023-04-27T02:03:26.167Z,2.17
2023-04-27T02:05:52.911Z,2.17
2023-04-27T02:08:19.389Z,2.60
2023-04-27T02:10:45.937Z,2.40
2023-04-27T02:13:12.500Z,2.33
2023-04-27T02:15:38.925Z,2.20
2023-04-27T02:18:05.644Z,2.22
2023-04-27T02:20:33.150Z,2.20
2023-04-27T02:23:02.179Z,2.17
2023-04-27T02:25:28.985Z,2.65
2023-04-27T02:27:55.914Z,2.22
2023-04-27T02:30:23.043Z,2.22
2023-04-27T02:32:50.055Z,2.10
2023-04-27T02:35:16.730Z,2.22
2023-04-27T02:37:43.436Z,2.40
2023-04-27T02:40:11.532Z,2.03
2023-04-27T02:42:41.108Z,2.33
2023-04-27T02:45:11.501Z,2.47
2023-04-27T02:47:38.179Z,2.08
2023-04-27T02:50:06.021Z,2.80
2023-04-27T02:52:34.415Z,2.83
2023-04-27T02:55:01.128Z,3.78
2023-04-27T02:57:28.409Z,3.97
2023-04-27T02:59:54.880Z,2.63
2023-04-27T03:02:21.476Z,2.05
2023-04-27T03:04:53.465Z,2.00
2023-04-27T03:07:20.019Z,2.05
2023-04-27T03:09:46.455Z,3.40
2023-04-27T03:12:12.871Z,4.82
2023-04-27T03:14:39.452Z,3.78
2023-04-27T03:17:05.945Z,3.20
2023-04-27T03:19:32.553Z,2.60
2023-04-27T03:21:59.298Z,2.88
2023-04-27T03:24:25.894Z,2.25
2023-04-27T03:26:52.469Z,3.50
2023-04-27T03:29:21.196Z,3.25
2023-04-27T03:31:47.864Z,3.55
2023-04-27T03:34:14.606Z,2.67
2023-04-27T03:36:41.403Z,4.32
2023-04-27T03:39:09.972Z,4.50
2023-04-27T03:41:36.649Z,3.42
2023-04-27T03:44:03.513Z,3.30
2023-04-27T03:46:30.191Z,3.95
2023-04-27T03:48:56.957Z,4.35
2023-04-27T03:51:24.427Z,3.35
2023-04-27T03:53:50.961Z,2.80
2023-04-27T03:56:19.044Z,3.70
2023-04-27T03:58:46.824Z,3.88
2023-04-27T04:01:21.926Z,2.93
2023-04-27T04:03:50.706Z,3.00
2023-04-27T04:06:17.807Z,2.97
2023-04-27T04:08:45.796Z,3.80
2023-04-27T04:11:12.817Z,2.35
2023-04-27T04:13:39.662Z,2.42
2023-04-27T04:16:08.815Z,2.00
2023-04-27T04:18:37.022Z,2.63
2023-04-27T04:21:04.777Z,2.30
2023-04-27T04:23:32.852Z,2.10
2023-04-27T04:25:59.849Z,2.50
2023-04-27T04:28:31.097Z,2.50
2023-04-27T04:30:59.118Z,2.50
2023-04-27T04:33:26.496Z,2.30
2023-04-27T04:35:53.807Z,2.13
2023-04-27T04:38:21.749Z,2.50
2023-04-27T04:40:48.952Z,2.03
2023-04-27T04:43:15.607Z,2.30
2023-04-27T04:45:42.681Z,2.33
2023-04-27T04:48:10.313Z,2.50
2023-04-27T04:50:37.143Z,2.40
2023-04-27T04:53:03.887Z,2.90
2023-04-27T04:55:31.564Z,2.38
2023-04-27T04:57:58.355Z,2.42
2023-04-27T05:00:28.013Z,2.85
2023-04-27T05:02:54.720Z,2.65
2023-04-27T05:05:21.454Z,2.80
2023-04-27T05:07:47.966Z,2.55
2023-04-27T05:10:14.641Z,2.38
2023-04-27T05:12:41.414Z,2.60
2023-04-27T05:15:08.529Z,2.50
2023-04-27T05:17:35.151Z,2.45
2023-04-27T05:20:01.845Z,2.70
2023-04-27T05:22:28.479Z,2.45
2023-04-27T05:24:55.870Z,2.63
2023-04-27T05:27:22.546Z,2.80
2023-04-27T05:29:49.256Z,2.83
2023-04-27T05:32:15.728Z,2.60
2023-04-27T05:34:45.663Z,2.97
2023-04-27T05:37:13.988Z,2.58
2023-04-27T05:39:40.890Z,2.90
2023-04-27T05:42:07.385Z,2.70
2023-04-27T05:44:33.839Z,2.90
2023-04-27T05:47:00.454Z,3.15
2023-04-27T05:49:27.129Z,2.70
2023-04-27T05:51:53.606Z,2.47
2023-04-27T05:54:20.331Z,2.88
2023-04-27T05:56:47.121Z,2.35
2023-04-27T05:59:13.754Z,2.92
2023-04-27T06:01:40.334Z,2.38
2023-04-27T06:04:07.218Z,2.90
2023-04-27T06:06:35.422Z,2.45
2023-04-27T06:09:02.117Z,3.22
2023-04-27T06:11:28.569Z,3.30
2023-04-27T06:13:55.210Z,2.33
2023-04-27T06:16:21.958Z,2.20
2023-04-27T06:18:50.538Z,2.67
2023-04-27T06:21:18.044Z,2.40
2023-04-27T06:23:44.801Z,2.17
2023-04-27T06:26:11.719Z,2.20
2023-04-27T06:28:38.424Z,2.35
2023-04-27T06:31:06.433Z,2.20
2023-04-27T06:33:33.341Z,2.30
2023-04-27T06:36:01.266Z,2.70
2023-04-27T06:38:27.759Z,2.80
2023-04-27T06:40:54.195Z,2.38
2023-04-27T06:43:20.687Z,2.22
2023-04-27T06:45:47.220Z,2.50
2023-04-27T06:48:13.776Z,2.53
2023-04-27T06:50:40.471Z,2.75
2023-04-27T06:53:06.933Z,3.55
2023-04-27T06:55:33.367Z,3.40
2023-04-27T06:57:59.899Z,2.63
2023-04-27T07:00:27.029Z,2.15
2023-04-27T07:02:53.572Z,2.20
2023-04-27T07:05:20.250Z,2.50
2023-04-27T07:07:46.681Z,2.15
2023-04-27T07:10:13.136Z,2.50
2023-04-27T07:12:40.206Z,2.10
2023-04-27T07:15:07.493Z,2.60
2023-04-27T07:17:34.017Z,2.22
2023-04-27T07:20:05.876Z,2.22
2023-04-27T07:22:33.035Z,2.03
2023-04-27T07:24:59.514Z,2.20
2023-04-27T07:27:26.588Z,3.20
2023-04-27T07:29:53.387Z,2.38
2023-04-27T07:32:19.935Z,2.10
2023-04-27T07:34:53.641Z,2.13
2023-04-27T07:37:21.736Z,3.28
2023-04-27T07:39:54.634Z,4.10
2023-04-27T07:42:25.009Z,1.80
2023-04-27T07:44:52.359Z,1.60
2023-04-27T07:47:18.894Z,1.95
2023-04-27T07:49:46.281Z,1.90
2023-04-27T07:52:12.714Z,1.95
2023-04-27T07:54:39.816Z,2.03
2023-04-27T07:57:11.441Z,1.95
2023-04-27T07:59:38.200Z,1.80
2023-04-27T08:02:18.275Z,1.60
2023-04-27T08:04:46.638Z,3.08
2023-04-27T08:07:14.126Z,1.60
2023-04-27T08:09:40.752Z,2.05
2023-04-27T08:12:07.279Z,1.83
2023-04-27T08:14:36.776Z,1.40
2023-04-27T08:17:03.404Z,1.42
2023-04-27T08:19:30.027Z,1.60
2023-04-27T08:21:56.694Z,1.88
2023-04-27T08:24:23.154Z,1.90
2023-04-27T08:26:49.642Z,1.63
2023-04-27T08:29:27.194Z,2.35
2023-04-27T08:31:57.157Z,1.50
2023-04-27T08:34:24.032Z,1.58
2023-04-27T08:36:50.648Z,1.70
2023-04-27T08:39:18.028Z,1.80
2023-04-27T08:41:44.649Z,1.80
2023-04-27T08:44:11.111Z,2.10
2023-04-27T08:46:38.606Z,1.88
2023-04-27T08:49:06.428Z,1.60
2023-04-27T08:51:33.376Z,2.00
2023-04-27T08:54:00.128Z,2.13
2023-04-27T08:56:28.253Z,1.98
2023-04-27T08:58:56.226Z,1.83
2023-04-27T09:01:24.391Z,1.67
2023-04-27T09:04:02.300Z,2.03
2023-04-27T09:06:31.525Z,1.40
2023-04-27T09:08:58.106Z,1.20
2023-04-27T09:11:35.960Z,1.80
2023-04-27T09:14:15.640Z,1.33
2023-04-27T09:16:43.287Z,2.28
2023-04-27T09:19:10.032Z,1.70
2023-04-27T09:21:36.482Z,1.50
2023-04-27T09:24:13.763Z,1.30
2023-04-27T09:26:42.737Z,1.23
2023-04-27T09:29:09.378Z,1.13
2023-04-27T09:31:36.459Z,1.75
2023-04-27T09:34:03.807Z,1.60
2023-04-27T09:36:32.294Z,1.77
2023-04-27T09:38:59.059Z,1.85
2023-04-27T09:41:26.604Z,1.75
2023-04-27T09:43:57.006Z,1.73
2023-04-27T09:46:25.796Z,1.48
2023-04-27T09:48:52.929Z,2.47
2023-04-27T09:51:19.365Z,2.00
2023-04-27T09:53:51.581Z,1.88
2023-04-27T09:56:44.418Z,1.88
2023-04-27T09:59:26.794Z,1.80
2023-04-27T10:02:01.371Z,2.20
2023-04-27T10:04:34.604Z,1.63
2023-04-27T10:07:07.542Z,1.38
2023-04-27T10:09:41.377Z,1.50
2023-04-27T10:12:28.304Z,1.50
2023-04-27T10:15:11.108Z,1.63
2023-04-27T10:17:37.824Z,1.90
2023-04-27T10:20:07.391Z,1.50
2023-04-27T10:22:49.966Z,1.27
2023-04-27T10:25:17.805Z,1.27
2023-04-27T10:27:48.729Z,1.85
2023-04-27T10:30:18.159Z,1.70
2023-04-27T10:32:58.540Z,1.88
2023-04-27T10:35:55.742Z,1.52
2023-04-27T10:38:28.684Z,2.88
2023-04-27T10:41:03.365Z,1.45
2023-04-27T10:43:32.142Z,1.70
2023-04-27T10:46:13.194Z,1.55
2023-04-27T10:48:43.894Z,1.60
2023-04-27T10:51:15.376Z,1.40
2023-04-27T10:53:42.079Z,1.80
2023-04-27T10:56:08.689Z,1.40
2023-04-27T10:58:48.197Z,1.70
2023-04-27T11:01:25.802Z,1.70
2023-04-27T11:03:59.825Z,1.35
2023-04-27T11:06:28.396Z,1.52
2023-04-27T11:08:54.970Z,1.70
2023-04-27T11:11:22.542Z,1.63
2023-04-27T11:13:49.822Z,1.52
2023-04-27T11:16:16.809Z,1.70
2023-04-27T11:18:43.292Z,1.70
2023-04-27T11:21:14.985Z,1.60
2023-04-27T11:23:42.250Z,1.30
2023-04-27T11:26:22.127Z,1.70
2023-04-27T11:29:05.456Z,1.90
2023-04-27T11:31:49.327Z,1.60
2023-04-27T11:34:23.982Z,1.40
2023-04-27T11:39:38.952Z,1.48
2023-04-27T11:42:16.965Z,1.40
2023-04-27T11:44:43.578Z,1.98
2023-04-27T11:47:18.851Z,1.50
2023-04-27T11:49:49.673Z,1.45
2023-04-27T11:52:16.631Z,1.17
2023-04-27T11:54:52.881Z,1.42
2023-04-27T11:57:30.833Z,1.05
2023-04-27T12:00:00.118Z,1.58
2023-04-27T12:02:27.959Z,1.23
2023-04-27T12:04:55.044Z,1.50
2023-04-27T12:07:21.659Z,1.70
2023-04-27T12:09:48.636Z,1.60
2023-04-27T12:12:18.169Z,1.45
2023-04-27T12:14:45.312Z,1.50
2023-04-27T12:17:11.984Z,1.70
2023-04-27T12:19:38.475Z,1.45
2023-04-27T12:22:05.368Z,1.70
2023-04-27T12:24:32.299Z,1.60
2023-04-27T12:26:59.415Z,1.77
2023-04-27T12:29:25.840Z,1.50
2023-04-27T12:31:53.213Z,1.48
2023-04-27T12:34:19.786Z,1.40
2023-04-27T12:36:46.968Z,1.70
2023-04-27T12:39:19.671Z,1.17
2023-04-27T12:41:47.766Z,1.30
2023-04-27T12:44:15.336Z,1.17
2023-04-27T12:46:43.206Z,1.40
2023-04-27T12:49:11.116Z,1.20
2023-04-27T12:51:37.720Z,1.60
2023-04-27T12:54:04.701Z,1.33
2023-04-27T12:56:31.347Z,1.30
2023-04-27T12:58:58.330Z,1.20
2023-04-27T13:01:27.558Z,1.40
2023-04-27T13:03:55.787Z,1.08
2023-04-27T13:06:22.840Z,1.13
2023-04-27T13:08:50.860Z,1.30
2023-04-27T13:11:18.329Z,1.15
2023-04-27T13:13:45.794Z,1.17
2023-04-27T13:16:12.988Z,1.20
2023-04-27T13:18:40.630Z,1.20
2023-04-27T13:21:08.364Z,1.20
2023-04-27T13:23:34.813Z,1.23
2023-04-27T13:26:01.467Z,1.50
2023-04-27T13:28:27.949Z,1.10
2023-04-27T13:30:54.511Z,1.20
2023-04-27T13:33:23.509Z,1.10
2023-04-27T13:35:51.246Z,1.13
2023-04-27T13:38:17.777Z,1.05
2023-04-27T13:40:44.340Z,1.20
2023-04-27T13:43:10.968Z,0.93
2023-04-27T13:45:37.432Z,1.00
2023-04-27T13:48:04.041Z,1.67
2023-04-27T13:50:30.602Z,1.23
2023-04-27T13:52:57.097Z,1.00
2023-04-27T13:55:23.752Z,0.90
2023-04-27T13:57:50.376Z,1.10
2023-04-27T14:00:17.076Z,1.50
2023-04-27T14:02:43.738Z,1.50
2023-04-27T14:05:10.397Z,1.35
2023-04-27T14:07:36.957Z,1.60
2023-04-27T14:10:04.423Z,1.42
2023-04-27T14:12:34.107Z,1.33
2023-04-27T14:15:00.652Z,1.48
2023-04-27T14:17:27.075Z,1.70
2023-04-27T14:19:53.502Z,2.15
2023-04-27T14:22:19.947Z,1.35
2023-04-27T14:24:46.519Z,1.80
2023-04-27T14:27:12.962Z,1.40
2023-04-27T14:29:39.438Z,1.30
2023-04-27T14:32:06.316Z,1.38
2023-04-27T14:34:32.942Z,1.15
2023-04-27T14:36:59.394Z,1.40
2023-04-27T14:39:28.053Z,1.30
2023-04-27T14:41:54.568Z,1.30
2023-04-27T14:44:21.041Z,1.20
2023-04-27T14:46:47.508Z,0.93
2023-04-27T14:49:14.270Z,1.08
2023-04-27T14:51:43.355Z,1.40
2023-04-27T14:54:10.050Z,1.00
2023-04-27T14:56:36.552Z,1.13
2023-04-27T14:59:03.158Z,1.42
2023-04-27T15:01:29.684Z,1.10
2023-04-27T15:03:57.823Z,1.00
2023-04-27T15:06:28.112Z,1.40
2023-04-27T15:08:55.289Z,1.27
2023-04-27T15:11:22.060Z,0.90
2023-04-27T15:13:48.874Z,1.20
2023-04-27T15:16:15.559Z,1.02
2023-04-27T15:18:42.288Z,1.00
2023-04-27T15:21:08.771Z,0.88
2023-04-27T15:23:37.071Z,0.88
2023-04-27T15:26:03.619Z,0.85
2023-04-27T15:28:30.263Z,0.80
2023-04-27T15:30:56.782Z,1.00
2023-04-27T15:33:23.308Z,0.90
2023-04-27T15:35:50.016Z,1.08
2023-04-27T15:38:17.830Z,1.00
2023-04-27T15:40:44.359Z,1.25
2023-04-27T15:43:10.948Z,0.90
2023-04-27T15:45:37.564Z,1.00
2023-04-27T15:48:04.315Z,1.00
2023-04-27T15:50:30.919Z,1.50
2023-04-27T15:52:57.391Z,1.20
2023-04-27T15:55:24.152Z,0.90
2023-04-27T15:57:50.700Z,1.10
2023-04-27T16:00:18.843Z,1.40
2023-04-27T16:02:46.341Z,1.05
2023-04-27T16:05:13.054Z,1.10
2023-04-27T16:07:39.874Z,1.08
2023-04-27T16:10:07.299Z,0.93
2023-04-27T16:12:33.818Z,1.00
2023-04-27T16:15:00.843Z,0.93
2023-04-27T16:17:29.020Z,0.80
2023-04-27T16:19:55.560Z,0.68
2023-04-27T16:22:22.268Z,0.90
2023-04-27T16:24:48.859Z,0.80
2023-04-27T16:27:17.145Z,0.70
2023-04-27T16:29:43.710Z,1.00
2023-04-27T16:32:10.962Z,0.70
2023-04-27T16:34:38.099Z,0.90
2023-04-27T16:37:05.871Z,1.23
2023-04-27T16:39:32.788Z,0.80
2023-04-27T16:41:59.236Z,0.98
2023-04-27T16:44:26.153Z,0.80
2023-04-27T16:46:52.683Z,1.00
2023-04-27T16:49:19.154Z,1.23
2023-04-27T16:51:45.681Z,1.20
2023-04-27T16:54:12.704Z,0.80
2023-04-27T16:56:39.155Z,0.73
2023-04-27T16:59:05.962Z,0.80
2023-04-27T17:01:32.466Z,1.10
2023-04-27T17:04:02.225Z,0.90
2023-04-27T17:06:29.925Z,0.88
2023-04-27T17:08:57.502Z,1.02
2023-04-27T17:11:24.262Z,0.80
2023-04-27T17:13:50.868Z,0.65
2023-04-27T17:16:18.678Z,0.90
2023-04-27T17:18:46.917Z,0.75
2023-04-27T17:21:13.828Z,0.70
2023-04-27T17:23:43.123Z,0.85
2023-04-27T17:26:10.599Z,0.90
2023-04-27T17:28:37.084Z,0.88
2023-04-27T17:31:03.601Z,0.93
2023-04-27T17:33:30.243Z,1.00
2023-04-27T17:35:56.737Z,1.25
2023-04-27T17:38:23.179Z,1.00
2023-04-27T17:40:49.646Z,1.00
2023-04-27T17:43:16.224Z,1.20
2023-04-27T17:45:42.809Z,0.93
2023-04-27T17:48:09.282Z,0.93
2023-04-27T17:50:37.468Z,1.40
2023-04-27T17:53:03.928Z,1.10
2023-04-27T17:55:30.340Z,1.65
2023-04-27T17:57:56.755Z,1.33
2023-04-27T18:00:23.388Z,1.10
2023-04-27T18:02:50.149Z,1.23
2023-04-27T18:05:17.238Z,1.73
2023-04-27T18:07:46.112Z,1.40
2023-04-27T18:10:12.915Z,1.50
2023-04-27T18:12:39.354Z,1.10
2023-04-27T18:15:09.347Z,1.40
2023-04-27T18:17:36.467Z,1.10
2023-04-27T18:20:09.423Z,1.60
2023-04-27T18:22:38.368Z,1.90
2023-04-27T18:25:05.205Z,1.50
2023-04-27T18:27:32.781Z,1.25
2023-04-27T18:29:59.333Z,1.17
2023-04-27T18:32:25.854Z,1.27
2023-04-27T18:34:52.423Z,1.40
2023-04-27T18:37:18.861Z,1.88
2023-04-27T18:39:45.317Z,1.55
2023-04-27T18:42:11.764Z,1.70
2023-04-27T18:44:38.227Z,1.35
2023-04-27T18:47:04.749Z,2.30
2023-04-27T18:49:31.186Z,1.35
2023-04-27T18:51:57.641Z,1.70
2023-04-27T18:54:24.071Z,1.50
2023-04-27T18:56:52.970Z,1.80
2023-04-27T18:59:20.234Z,1.73
2023-04-27T19:01:46.870Z,1.83
2023-04-27T19:04:14.473Z,1.80
2023-04-27T19:06:41.118Z,1.90
2023-04-27T19:09:09.113Z,1.58
2023-04-27T19:11:35.986Z,1.45
2023-04-27T19:14:02.438Z,1.88
2023-04-27T19:16:29.005Z,2.25
2023-04-27T19:18:55.544Z,2.20
2023-04-27T19:21:21.977Z,1.90
2023-04-27T19:23:48.468Z,1.73
2023-04-27T19:26:15.056Z,1.55
2023-04-27T19:28:41.539Z,1.30
2023-04-27T19:31:08.351Z,1.58
2023-04-27T19:33:34.949Z,1.58
2023-04-27T19:36:01.486Z,1.50
2023-04-27T19:38:27.912Z,1.40
2023-04-27T19:40:54.339Z,2.50
2023-04-27T19:43:20.884Z,2.30
2023-04-27T19:45:49.303Z,2.08
2023-04-27T19:48:16.087Z,2.00
2023-04-27T19:50:43.635Z,1.95
2023-04-27T19:53:10.839Z,2.03
2023-04-27T19:55:37.781Z,1.95
2023-04-27T19:58:04.221Z,1.50
2023-04-27T20:00:30.689Z,1.55
2023-04-27T20:02:57.200Z,1.42
2023-04-27T20:05:24.407Z,1.70
2023-04-27T20:07:51.047Z,1.88
2023-04-27T20:10:17.616Z,1.48
2023-04-27T20:12:54.331Z,1.30
2023-04-27T20:15:22.372Z,1.33
2023-04-27T20:17:48.802Z,1.65
2023-04-27T20:20:15.323Z,1.55
2023-04-27T20:22:41.821Z,1.50
2023-04-27T20:25:08.651Z,1.60
2023-04-27T20:27:35.629Z,1.85
2023-04-27T20:30:02.358Z,2.00
2023-04-27T20:32:28.821Z,1.70
2023-04-27T20:34:55.280Z,1.60
2023-04-27T20:37:23.066Z,1.50
2023-04-27T20:39:49.517Z,1.80
2023-04-27T20:42:16.077Z,1.95
2023-04-27T20:44:42.560Z,2.45
2023-04-27T20:47:09.002Z,2.03
2023-04-27T20:49:35.875Z,2.17
2023-04-27T20:52:03.034Z,2.20
2023-04-27T20:54:32.789Z,2.30
2023-04-27T20:57:01.765Z,4.47
2023-04-27T20:59:28.147Z,4.85
2023-04-27T21:01:54.561Z,3.15
2023-04-27T21:04:21.261Z,3.38
2023-04-27T21:06:47.913Z,2.85
2023-04-27T21:09:14.333Z,2.75
2023-04-27T21:11:40.930Z,2.38
2023-04-27T21:14:07.397Z,2.20
2023-04-27T21:16:33.894Z,2.15
2023-04-27T21:19:00.379Z,2.70
2023-04-27T21:21:26.983Z,2.28
2023-04-27T21:24:04.092Z,2.63
2023-04-27T21:26:34.221Z,2.75
2023-04-27T21:29:01.327Z,3.88
2023-04-27T21:31:27.782Z,3.45
2023-04-27T21:33:54.210Z,3.35
2023-04-27T21:36:20.608Z,2.80
2023-04-27T21:38:47.218Z,3.30
2023-04-27T21:41:13.659Z,2.20
2023-04-27T21:43:42.017Z,2.45
2023-04-27T21:46:09.176Z,1.92
2023-04-27T21:48:36.161Z,2.15
2023-04-27T21:51:02.876Z,2.10
2023-04-27T21:53:30.355Z,2.47
2023-04-27T21:55:57.130Z,2.50
2023-04-27T21:58:24.221Z,2.25
2023-04-27T22:00:50.836Z,2.17
2023-04-27T22:03:17.746Z,2.90
2023-04-27T22:05:45.262Z,2.72
2023-04-27T22:08:12.126Z,2.45
2023-04-27T22:10:38.687Z,3.00
2023-04-27T22:13:17.781Z,2.75
2023-04-27T22:15:45.819Z,3.10
2023-04-27T22:18:14.221Z,2.80
2023-04-27T22:20:40.736Z,2.92
2023-04-27T22:23:07.627Z,2.97
2023-04-27T22:25:34.073Z,2.88
2023-04-27T22:28:01.502Z,2.90
2023-04-27T22:30:28.818Z,2.78
2023-04-27T22:32:56.273Z,3.45
2023-04-27T22:35:27.248Z,3.15
2023-04-27T22:37:59.022Z,3.33
2023-04-27T22:40:25.885Z,3.55
2023-04-27T22:42:53.381Z,2.70
2023-04-27T22:45:19.868Z,2.13
2023-04-27T22:47:46.476Z,1.80
2023-04-27T22:50:13.406Z,2.00
2023-04-27T22:52:42.156Z,2.30
2023-04-27T22:55:09.923Z,2.00
2023-04-27T22:57:36.695Z,2.22
2023-04-27T23:00:05.356Z,2.30
2023-04-27T23:02:32.345Z,2.22
2023-04-27T23:04:59.096Z,2.95
2023-04-27T23:07:25.562Z,3.20
2023-04-27T23:09:52.736Z,3.63
2023-04-27T23:12:20.651Z,3.97
2023-04-27T23:14:47.174Z,3.30
2023-04-27T23:17:15.431Z,2.75
2023-04-27T23:19:41.988Z,3.33
2023-04-27T23:22:08.455Z,3.50
2023-04-27T23:24:34.891Z,3.20
2023-04-27T23:27:01.383Z,3.00
2023-04-27T23:29:27.867Z,3.00
2023-04-27T23:31:54.367Z,3.33
2023-04-27T23:34:20.767Z,3.45
2023-04-27T23:36:47.317Z,3.42
2023-04-27T23:39:13.754Z,3.45
2023-04-27T23:41:40.164Z,2.90
2023-04-27T23:44:06.844Z,2.95
2023-04-27T23:46:33.999Z,2.78
2023-04-27T23:49:00.507Z,2.55
2023-04-27T23:51:27.136Z,1.98
2023-04-27T23:53:53.547Z,1.65
2023-04-27T23:56:20.117Z,1.90
2023-04-27T23:58:46.571Z,1.73
